Time;durP1;ratioP1;P1;durP2;ratioP2;P2;SDS_P1;SDS_P2;PMS_P1;PMS_P2;Temp;Humidity;BMP_temperature;BMP_pressure;BME280_temperature;BME280_humidity;BME280_pressure;Samples;Min_cycle;Max_cycle;Signal;HPM_P1;HPM_P2
2023/04/26 06:12:26;;;;;;;7.80;5.47;;;;;;;;;;5155812;27;20262;-79
2023/04/26 06:19:10;;;;;;;10.83;6.00;;;;;;;;;;5135454;27;20268;-79
2023/04/26 06:23:14;;;;;;;6.47;5.30;;;5.20;99.90;;;;;;5135408;27;20280;-79
2023/04/26 06:26:55;;;;;;;8.70;6.60;;;5.40;99.90;;;;;;5134148;27;20275;-79
2023/04/26 06:30:49;;;;;;;9.37;6.27;;;;;;;;;;5094368;27;20825;-79
2023/04/26 06:34:47;;;;;;;6.50;5.43;;;;;;;;;;5135360;27;20277;-80
2023/04/26 06:37:13;;;;;;;6.67;4.37;;;5.50;99.90;;;;;;5134428;28;20454;-80
2023/04/26 06:41:47;;;;;;;7.53;5.17;;;;;;;;;;5133081;27;20316;-80
2023/04/26 06:45:44;;;;;;;7.33;5.87;;;;;;;;;;5133042;27;20291;-81
2023/04/26 06:48:10;;;;;;;8.23;5.33;;;6.00;99.90;;;;;;5133269;28;20512;-82
2023/04/26 06:50:40;;;;;;;7.00;5.03;;;6.40;99.90;;;;;;5136023;27;20193;-80
2023/04/26 06:53:06;;;;;;;7.20;5.10;;;;;;;;;;5135224;27;20697;-80
2023/04/26 06:55:32;;;;;;;5.87;4.80;;;6.20;99.90;;;;;;5132709;28;20250;-80
2023/04/26 06:57:58;;;;;;;7.17;4.73;;;6.20;99.90;;;;;;5133540;27;20645;-80
2023/04/26 07:00:24;;;;;;;6.13;4.47;;;6.10;99.90;;;;;;5131726;28;20183;-79
2023/04/26 07:02:49;;;;;;;7.70;5.43;;;6.20;99.90;;;;;;5132054;28;20176;-79
2023/04/26 07:05:15;;;;;;;7.63;5.13;;;6.40;99.90;;;;;;5131475;28;20263;-81
2023/04/26 07:07:41;;;;;;;6.13;5.23;;;6.70;99.90;;;;;;5131624;28;20633;-79
2023/04/26 07:10:08;;;;;;;8.27;5.17;;;;;;;;;;5133126;27;20254;-81
2023/04/26 07:12:34;;;;;;;8.83;5.47;;;6.80;99.90;;;;;;5131395;28;20175;-80
2023/04/26 07:15:00;;;;;;;8.60;5.10;;;6.90;99.90;;;;;;5132985;27;20506;-81
2023/04/26 07:17:26;;;;;;;8.53;5.43;;;6.90;99.90;;;;;;5133614;27;20208;-81
2023/04/26 07:19:52;;;;;;;6.23;4.97;;;6.70;99.90;;;;;;5132308;28;20230;-81
2023/04/26 07:22:18;;;;;;;6.27;5.10;;;;;;;;;;5133428;27;20177;-81
2023/04/26 07:24:43;;;;;;;5.97;5.03;;;6.70;99.90;;;;;;5132061;28;20568;-82
2023/04/26 07:27:10;;;;;;;7.07;4.60;;;;;;;;;;5133672;27;20200;-79
2023/04/26 07:29:36;;;;;;;6.80;4.90;;;;;;;;;;5133006;28;20181;-82
2023/04/26 07:32:02;;;;;;;7.57;4.70;;;;;;;;;;5137257;28;20237;-81
2023/04/26 07:34:28;;;;;;;9.37;5.23;;;6.50;99.90;;;;;;5138963;27;20226;-80
2023/04/26 07:36:55;;;;;;;8.37;5.00;;;;;;;;;;5132127;27;20197;-78
2023/04/26 07:39:20;;;;;;;8.77;4.97;;;7.20;99.90;;;;;;5132065;27;20164;-79
2023/04/26 07:41:46;;;;;;;6.10;4.53;;;7.50;99.90;;;;;;5130407;28;20211;-78
2023/04/26 07:44:12;;;;;;;5.57;4.20;;;;;;;;;;5131543;27;20670;-80
2023/04/26 07:46:38;;;;;;;4.60;4.00;;;;;;;;;;5130579;28;20212;-79
2023/04/26 07:49:04;;;;;;;5.77;4.60;;;;;;;;;;5132156;28;20235;-82
2023/04/26 07:51:30;;;;;;;5.30;4.33;;;7.80;99.90;;;;;;5130924;28;20175;-81
2023/04/26 07:53:56;;;;;;;5.13;4.53;;;7.90;99.90;;;;;;5131021;28;20183;-80
2023/04/26 07:56:23;;;;;;;6.10;3.70;;;7.70;99.90;;;;;;5122516;27;20200;-81
2023/04/26 07:58:48;;;;;;;6.93;4.30;;;7.60;99.90;;;;;;5118726;28;20572;-79
2023/04/26 08:01:14;;;;;;;7.37;4.70;;;;;;;;;;5118884;28;20639;-81
2023/04/26 08:03:41;;;;;;;7.03;4.60;;;7.90;99.90;;;;;;5117324;28;20199;-80
2023/04/26 08:06:07;;;;;;;6.20;4.20;;;7.60;99.90;;;;;;5119246;28;20191;-81
2023/04/26 08:08:39;;;;;;;3.93;3.40;;;7.60;99.90;;;;;;5118424;28;20168;-79
2023/04/26 08:11:07;;;;;;;6.90;4.70;;;7.70;99.90;;;;;;5117577;28;20175;-80
2023/04/26 08:13:32;;;;;;;6.47;4.63;;;7.70;99.90;;;;;;5118267;28;20191;-80
2023/04/26 08:15:58;;;;;;;6.00;4.57;;;;;;;;;;5117888;28;20194;-80
2023/04/26 08:18:24;;;;;;;6.03;3.80;;;;;;;;;;5117581;28;20197;-79
2023/04/26 08:20:50;;;;;;;6.43;4.80;;;7.50;99.90;;;;;;5118305;28;20178;-82
2023/04/26 08:23:18;;;;;;;7.10;4.77;;;7.60;99.90;;;;;;5117275;28;20172;-79
2023/04/26 08:25:44;;;;;;;6.20;4.50;;;;;;;;;;5118289;28;20197;-78
2023/04/26 08:28:13;;;;;;;5.17;4.43;;;;;;;;;;5118803;28;20620;-80
2023/04/26 08:30:39;;;;;;;7.17;4.03;;;;;;;;;;5117039;28;20175;-79
2023/04/26 08:33:05;;;;;;;7.73;5.17;;;7.80;99.90;;;;;;5117402;28;20186;-80
2023/04/26 08:35:31;;;;;;;5.80;4.20;;;7.90;99.90;;;;;;5119034;28;20202;-81
2023/04/26 08:37:57;;;;;;;6.53;4.93;;;;;;;;;;5120386;28;20235;-80
2023/04/26 08:40:24;;;;;;;5.47;4.60;;;8.00;99.90;;;;;;5118137;28;20179;-80
2023/04/26 08:42:51;;;;;;;4.33;3.60;;;8.30;99.90;;;;;;5119193;28;20172;-79
2023/04/26 08:45:17;;;;;;;5.63;4.50;;;9.30;99.90;;;;;;5118886;28;20233;-80
2023/04/26 08:47:51;;;;;;;5.43;4.37;;;9.60;99.90;;;;;;5119375;28;20633;-82
2023/04/26 08:50:22;;;;;;;5.33;3.07;;;9.50;99.90;;;;;;5121014;28;20219;-82
2023/04/26 08:52:51;;;;;;;4.47;3.30;;;9.30;99.90;;;;;;5118262;28;20178;-83
2023/04/26 08:55:18;;;;;;;5.47;3.93;;;9.10;99.90;;;;;;5118403;28;20204;-81
2023/04/26 08:57:49;;;;;;;5.27;4.30;;;8.90;99.90;;;;;;5117078;28;20184;-83
2023/04/26 09:00:17;;;;;;;5.67;3.83;;;8.90;99.90;;;;;;5117343;28;20195;-81
2023/04/26 09:02:48;;;;;;;5.23;4.00;;;9.50;99.90;;;;;;5118651;28;20590;-82
2023/04/26 09:05:14;;;;;;;5.13;3.70;;;;;;;;;;5118562;28;20207;-82
2023/04/26 09:07:46;;;;;;;6.57;3.90;;;9.60;99.90;;;;;;5120196;28;20168;-82
2023/04/26 09:10:18;;;;;;;5.53;4.20;;;9.60;99.90;;;;;;5127333;28;20232;-81
2023/04/26 09:12:43;;;;;;;6.40;3.97;;;9.30;99.90;;;;;;5117850;28;20175;-81
2023/04/26 09:15:09;;;;;;;4.40;3.93;;;9.40;99.90;;;;;;5118647;28;20171;-82
2023/04/26 09:17:40;;;;;;;4.97;3.93;;;9.30;99.90;;;;;;5117170;28;20194;-81
2023/04/26 09:20:26;;;;;;;6.73;3.70;;;9.30;99.90;;;;;;5116772;28;20644;-80
2023/04/26 09:23:02;;;;;;;4.80;3.43;;;9.20;99.90;;;;;;5118064;28;20193;-82
2023/04/26 09:25:30;;;;;;;6.03;3.77;;;9.20;99.90;;;;;;5115919;28;20207;-81
2023/04/26 09:27:57;;;;;;;15.90;4.70;;;9.60;99.90;;;;;;5116585;28;20179;-84
2023/04/26 09:30:23;;;;;;;4.67;2.97;;;10.00;99.90;;;;;;5117479;28;20179;-81
2023/04/26 09:32:53;;;;;;;4.53;3.30;;;10.30;99.90;;;;;;5116424;28;20186;-81
2023/04/26 09:35:25;;;;;;;4.97;3.20;;;10.60;99.90;;;;;;5121414;28;20549;-83
2023/04/26 09:38:14;;;;;;;5.10;2.93;;;10.50;99.90;;;;;;5123934;28;20186;-83
2023/04/26 09:40:41;;;;;;;4.63;3.33;;;10.00;99.90;;;;;;5118795;28;20167;-81
2023/04/26 09:43:12;;;;;;;4.07;3.10;;;9.90;99.90;;;;;;5118288;28;20622;-81
2023/04/26 09:45:44;;;;;;;5.13;2.90;;;10.00;99.90;;;;;;5116321;28;20219;-81
2023/04/26 09:48:24;;;;;;;6.77;3.40;;;10.30;99.90;;;;;;5116042;28;20182;-83
2023/04/26 09:50:52;;;;;;;4.30;2.90;;;10.70;99.90;;;;;;5118570;28;20563;-81
2023/04/26 09:53:37;;;;;;;2.80;2.47;;;10.70;99.90;;;;;;5116398;28;20175;-82
2023/04/26 09:56:13;;;;;;;4.07;3.07;;;10.70;99.90;;;;;;5117283;28;20198;-81
2023/04/26 09:58:58;;;;;;;6.10;2.83;;;10.20;99.90;;;;;;5115623;28;20171;-83
2023/04/26 10:01:25;;;;;;;2.87;2.57;;;9.60;99.90;;;;;;5116625;28;20162;-81
2023/04/26 10:03:51;;;;;;;3.93;2.80;;;9.60;99.90;;;;;;5114976;28;20737;-80
2023/04/26 10:06:16;;;;;;;5.77;4.53;;;8.80;99.90;;;;;;5116248;28;20199;-82
2023/04/26 10:08:43;;;;;;;5.20;2.97;;;8.80;99.90;;;;;;5115479;28;20180;-82
2023/04/26 10:11:12;;;;;;;5.60;3.27;;;9.10;99.90;;;;;;5116885;28;20202;-81
2023/04/26 10:13:40;;;;;;;4.67;3.13;;;9.10;99.90;;;;;;5116128;28;20270;-81
2023/04/26 10:16:08;;;;;;;4.80;3.30;;;9.20;99.90;;;;;;5117540;28;20570;-82
2023/04/26 10:18:35;;;;;;;4.93;3.60;;;9.50;99.90;;;;;;5116068;28;20774;-82
2023/04/26 10:21:23;;;;;;;3.93;3.43;;;9.70;99.90;;;;;;5118578;28;20186;-82
2023/04/26 10:23:49;;;;;;;6.70;3.43;;;9.90;99.90;;;;;;5119388;28;20192;-81
2023/04/26 10:26:53;;;;;;;5.90;3.00;;;10.50;99.90;;;;;;5119151;28;20278;-82
2023/04/26 10:29:54;;;;;;;6.27;3.40;;;11.00;99.90;;;;;;5118495;28;20182;-82
2023/04/26 10:32:20;;;;;;;5.10;3.20;;;11.20;99.90;;;;;;5118566;28;20171;-83
2023/04/26 10:35:13;;;;;;;3.67;2.80;;;12.10;99.90;;;;;;5116512;28;20232;-82
2023/04/26 10:38:00;;;;;;;4.47;3.40;;;12.90;99.90;;;;;;5115687;28;20183;-81
2023/04/26 10:40:27;;;;;;;5.17;2.93;;;13.30;99.90;;;;;;5116285;28;20560;-81
2023/04/26 10:43:07;;;;;;;6.67;2.90;;;13.60;99.90;;;;;;5118165;28;20179;-82
2023/04/26 10:45:33;;;;;;;4.23;2.60;;;13.10;99.90;;;;;;5118065;28;20224;-82
2023/04/26 10:48:19;;;;;;;6.10;2.90;;;12.50;99.90;;;;;;5127390;28;20167;-81
2023/04/26 10:51:00;;;;;;;7.20;4.10;;;11.60;99.90;;;;;;5115896;28;20182;-82
2023/04/26 10:53:45;;;;;;;5.13;3.87;;;10.60;99.90;;;;;;5117459;28;20264;-83
2023/04/26 10:56:22;;;;;;;6.33;4.47;;;10.30;99.90;;;;;;5117714;28;20215;-81
2023/04/26 10:59:06;;;;;;;6.97;4.47;;;11.00;99.90;;;;;;5116434;28;20183;-81
2023/04/26 11:01:32;;;;;;;7.83;4.30;;;11.80;99.90;;;;;;5116808;28;20167;-82
2023/04/26 11:03:57;;;;;;;5.03;3.27;;;11.80;99.90;;;;;;5116572;28;20236;-84
2023/04/26 11:06:24;;;;;;;6.90;4.40;;;11.30;99.90;;;;;;5117503;28;20274;-83
2023/04/26 11:08:50;;;;;;;6.00;3.10;;;10.90;99.90;;;;;;5116485;28;20202;-82
2023/04/26 11:11:18;;;;;;;6.50;3.37;;;11.10;99.90;;;;;;5116394;28;20594;-83
2023/04/26 11:13:45;;;;;;;5.43;3.50;;;11.20;99.90;;;;;;5117637;28;20180;-83
2023/04/26 11:16:16;;;;;;;5.80;3.70;;;11.50;99.90;;;;;;5117738;28;20194;-82
2023/04/26 11:18:46;;;;;;;4.33;3.13;;;11.90;99.90;;;;;;5116645;28;20213;-81
2023/04/26 11:21:16;;;;;;;7.00;3.47;;;11.90;99.90;;;;;;5115807;28;20224;-82
2023/04/26 11:23:42;;;;;;;4.10;3.33;;;12.80;99.90;;;;;;5115747;28;20176;-82
2023/04/26 11:26:08;;;;;;;6.07;3.30;;;13.80;99.90;;;;;;5116811;28;20187;-82
2023/04/26 11:28:36;;;;;;;4.23;3.07;;;14.80;99.90;;;;;;5116199;28;20177;-83
2023/04/26 11:31:06;;;;;;;5.17;2.93;;;14.50;99.90;;;;;;5116772;28;20564;-83
2023/04/26 11:33:33;;;;;;;4.13;2.50;;;14.20;99.90;;;;;;5118897;28;20517;-83
2023/04/26 11:35:58;;;;;;;4.03;2.70;;;15.10;99.90;;;;;;5121796;28;20201;-82
2023/04/26 11:38:25;;;;;;;4.83;2.87;;;15.60;99.90;;;;;;5120859;28;20534;-81
2023/04/26 11:40:59;;;;;;;4.93;2.93;;;15.30;99.90;;;;;;5119308;28;20177;-81
2023/04/26 11:43:35;;;;;;;6.50;3.53;;;15.00;99.90;;;;;;5119114;28;20208;-81
2023/04/26 11:46:02;;;;;;;3.67;2.80;;;14.60;99.90;;;;;;5118743;28;20667;-80
2023/04/26 11:48:29;;;;;;;5.60;3.00;;;14.10;99.90;;;;;;5120132;28;20620;-83
2023/04/26 11:50:59;;;;;;;4.97;3.70;;;14.30;99.90;;;;;;5119847;28;20192;-81
2023/04/26 11:53:34;;;;;;;3.70;3.07;;;14.10;99.90;;;;;;5118393;28;20175;-82
2023/04/26 11:56:00;;;;;;;3.40;2.83;;;13.20;99.90;;;;;;5119922;28;20207;-80
2023/04/26 11:58:25;;;;;;;3.23;2.50;;;12.60;99.90;;;;;;5120223;28;20575;-83
2023/04/26 12:01:01;;;;;;;3.47;2.33;;;12.50;99.90;;;;;;5118224;28;20240;-82
2023/04/26 12:03:39;;;;;;;3.67;2.70;;;13.30;99.90;;;;;;5119537;28;20235;-83
2023/04/26 12:06:05;;;;;;;4.97;2.00;;;14.40;99.50;;;;;;5119421;28;20256;-82
2023/04/26 12:08:32;;;;;;;2.20;2.00;;;15.10;99.90;;;;;;5120533;28;20178;-83
2023/04/26 12:11:01;;;;;;;2.47;2.20;;;16.40;99.90;;;;;;5120163;28;20182;-82
2023/04/26 12:13:28;;;;;;;4.10;2.17;;;17.00;96.70;;;;;;5119484;28;20173;-82
2023/04/26 12:15:54;;;;;;;3.53;1.80;;;16.40;91.40;;;;;;5117946;28;20196;-79
2023/04/26 12:18:22;;;;;;;3.30;1.60;;;16.50;87.90;;;;;;5120731;28;20528;-82
2023/04/26 12:20:48;;;;;;;3.30;2.00;;;16.10;86.70;;;;;;5119502;28;20175;-82
2023/04/26 12:23:15;;;;;;;5.13;2.67;;;15.40;89.80;;;;;;5123075;27;20172;-82
2023/04/26 12:25:54;;;;;;;2.43;1.70;;;14.40;91.60;;;;;;5126595;28;20219;-81
2023/04/26 12:28:20;;;;;;;4.17;2.07;;;13.80;94.20;;;;;;5118652;28;20173;-83
2023/04/26 12:30:47;;;;;;;3.67;2.30;;;13.40;94.00;;;;;;5118415;28;20183;-80
2023/04/26 12:33:13;;;;;;;3.00;2.40;;;12.90;96.20;;;;;;5120367;28;20178;-80
2023/04/26 12:35:38;;;;;;;3.27;2.47;;;12.80;96.20;;;;;;5117703;28;20532;-78
2023/04/26 12:38:04;;;;;;;7.80;2.30;;;13.30;97.20;;;;;;5118354;28;20529;-79
2023/04/26 12:40:30;;;;;;;4.00;2.73;;;13.60;99.90;;;;;;5118578;28;20651;-79
2023/04/26 12:42:57;;;;;;;7.97;2.70;;;14.00;98.90;;;;;;5119313;28;20176;-79
2023/04/26 12:45:24;;;;;;;4.53;2.60;;;14.10;98.40;;;;;;5118112;28;20252;-78
2023/04/26 12:47:50;;;;;;;3.47;2.63;;;15.10;99.40;;;;;;5116956;28;20179;-80
2023/04/26 12:50:16;;;;;;;4.20;2.23;;;15.70;97.80;;;;;;5116671;28;20173;-80
2023/04/26 12:52:43;;;;;;;4.47;2.60;;;16.60;96.70;;;;;;5119120;28;20222;-78
2023/04/26 12:55:13;;;;;;;5.40;2.83;;;17.50;95.40;;;;;;5119599;28;20170;-78
2023/04/26 12:57:40;;;;;;;4.33;2.90;;;17.30;94.50;;;;;;5117686;28;20245;-82
2023/04/26 13:00:11;;;;;;;5.03;2.70;;;18.00;90.70;;;;;;5116346;28;20181;-79
2023/04/26 13:02:37;;;;;;;4.33;2.67;;;18.10;92.70;;;;;;5116283;28;20278;-81
2023/04/26 13:05:05;;;;;;;4.70;2.83;;;18.60;88.40;;;;;;5115881;28;20274;-81
2023/04/26 13:07:36;;;;;;;4.00;2.50;;;17.40;87.10;;;;;;5116305;28;20251;-80
2023/04/26 13:10:02;;;;;;;4.10;2.70;;;16.30;88.40;;;;;;5117231;28;20168;-80
2023/04/26 13:12:28;;;;;;;3.63;2.53;;;16.20;90.80;;;;;;5115154;28;20168;-80
2023/04/26 13:14:54;;;;;;;4.40;2.40;;;16.00;94.90;;;;;;5114725;28;20603;-80
2023/04/26 13:17:22;;;;;;;4.33;3.00;;;16.00;92.20;;;;;;5115086;28;20555;-80
2023/04/26 13:19:47;;;;;;;8.70;2.63;;;15.80;90.70;;;;;;5117771;28;20187;-80
2023/04/26 13:22:15;;;;;;;6.50;2.43;;;15.30;93.30;;;;;;5119151;28;20182;-80
2023/04/26 13:24:41;;;;;;;3.53;3.10;;;15.00;91.50;;;;;;5117930;28;20227;-81
2023/04/26 13:27:06;;;;;;;4.50;2.63;;;14.40;92.00;;;;;;5120009;28;20583;-82
2023/04/26 13:29:33;;;;;;;5.23;2.47;;;13.70;92.70;;;;;;5116818;28;20181;-82
2023/04/26 13:32:00;;;;;;;3.63;2.43;;;14.10;96.00;;;;;;5117328;28;20197;-83
2023/04/26 13:34:26;;;;;;;3.70;2.50;;;14.50;95.10;;;;;;5117902;28;20212;-78
2023/04/26 13:36:52;;;;;;;4.47;2.77;;;14.40;91.40;;;;;;5117359;28;20585;-80
2023/04/26 13:39:18;;;;;;;4.57;2.30;;;14.50;93.00;;;;;;5117353;28;20173;-79
2023/04/26 13:41:44;;;;;;;3.77;2.37;;;14.90;93.50;;;;;;5116385;28;20625;-80
2023/04/26 13:44:09;;;;;;;6.23;2.33;;;15.00;93.10;;;;;;5118999;28;20251;-82
2023/04/26 13:46:35;;;;;;;3.80;2.50;;;15.30;94.00;;;;;;5118256;28;20297;-81
2023/04/26 13:49:01;;;;;;;2.90;2.67;;;16.10;93.50;;;;;;5118593;28;20176;-81
2023/04/26 13:51:29;;;;;;;4.17;3.13;;;16.60;90.70;;;;;;5118896;28;20171;-80
2023/04/26 13:53:55;;;;;;;5.27;2.93;;;15.80;90.20;;;;;;5119013;27;20166;-83
2023/04/26 13:56:21;;;;;;;6.03;3.33;;;14.80;92.90;;;;;;5118695;28;20194;-80
2023/04/26 13:58:47;;;;;;;7.23;3.73;;;14.70;92.40;;;;;;5119060;28;20174;-81
2023/04/26 14:01:13;;;;;;;4.03;2.37;;;14.60;93.00;;;;;;5121586;28;20203;-81
2023/04/26 14:03:40;;;;;;;3.80;2.33;;;14.70;94.50;;;;;;5121929;28;20189;-80
2023/04/26 14:06:06;;;;;;;4.17;2.43;;;15.40;92.30;;;;;;5116827;28;20199;-81
2023/04/26 14:08:32;;;;;;;3.13;2.50;;;15.60;90.50;;;;;;5117544;28;20182;-82
2023/04/26 14:10:58;;;;;;;4.20;2.50;;;15.40;92.40;;;;;;5115604;28;20182;-82
2023/04/26 14:13:23;;;;;;;3.83;2.53;;;15.00;93.90;;;;;;5115808;28;20298;-81
2023/04/26 14:15:49;;;;;;;4.87;2.80;;;14.70;93.50;;;;;;5116040;28;20207;-81
2023/04/26 14:18:16;;;;;;;5.47;2.83;;;14.50;91.10;;;;;;5116997;28;20177;-80
2023/04/26 14:20:41;;;;;;;5.47;2.73;;;14.60;93.70;;;;;;5116528;28;20183;-80
2023/04/26 14:23:07;;;;;;;3.70;2.40;;;15.10;95.40;;;;;;5115367;28;20185;-80
2023/04/26 14:25:33;;;;;;;5.03;2.87;;;15.30;94.60;;;;;;5116465;28;20554;-81
2023/04/26 14:27:59;;;;;;;3.97;2.70;;;15.10;92.20;;;;;;5116540;28;20228;-81
2023/04/26 14:30:26;;;;;;;3.93;2.47;;;14.60;91.90;;;;;;5115836;28;20170;-81
2023/04/26 14:32:51;;;;;;;4.80;2.63;;;14.40;91.40;;;;;;5116136;28;20255;-80
2023/04/26 14:35:17;;;;;;;4.10;2.53;;;13.90;91.20;;;;;;5115714;28;20316;-81
2023/04/26 14:37:43;;;;;;;4.23;2.47;;;13.60;94.60;;;;;;5114745;28;20184;-80
2023/04/26 14:40:09;;;;;;;3.30;2.40;;;13.50;94.40;;;;;;5114343;28;20181;-81
2023/04/26 14:42:35;;;;;;;4.90;2.27;;;13.50;93.90;;;;;;5115230;28;20180;-81
2023/04/26 14:45:01;;;;;;;2.80;2.13;;;13.50;96.00;;;;;;5116281;28;20209;-81
2023/04/26 14:47:28;;;;;;;2.67;2.20;;;13.40;93.40;;;;;;5115118;28;20171;-82
2023/04/26 14:49:53;;;;;;;7.53;2.40;;;13.50;96.50;;;;;;5115350;28;20561;-84
2023/04/26 14:52:19;;;;;;;5.03;2.47;;;13.90;94.60;;;;;;5116803;28;20179;-82
2023/04/26 14:54:45;;;;;;;3.30;2.10;;;14.00;94.70;;;;;;5114634;28;20220;-81
2023/04/26 14:57:11;;;;;;;3.97;2.20;;;14.40;94.80;;;;;;5116081;28;20187;-81
2023/04/26 14:59:37;;;;;;;5.03;2.43;;;14.70;92.20;;;;;;5116357;28;20168;-81
2023/04/26 15:02:03;;;;;;;3.40;2.60;;;15.50;95.60;;;;;;5115282;28;20262;-82
2023/04/26 15:04:29;;;;;;;2.93;2.00;;;15.50;90.60;;;;;;5117337;28;20208;-83
2023/04/26 15:06:55;;;;;;;5.43;2.20;;;15.20;92.20;;;;;;5117998;28;20214;-80
2023/04/26 15:09:21;;;;;;;3.40;2.27;;;14.60;92.40;;;;;;5119189;28;20167;-80
2023/04/26 15:11:47;;;;;;;4.27;2.37;;;14.40;91.50;;;;;;5120157;28;20182;-81
2023/04/26 15:14:12;;;;;;;3.33;2.07;;;14.00;94.10;;;;;;5120127;28;20169;-81
2023/04/26 15:16:38;;;;;;;4.17;2.83;;;14.30;94.00;;;;;;5118877;28;20285;-81
2023/04/26 15:19:03;;;;;;;3.47;3.00;;;14.80;93.00;;;;;;5120899;28;20212;-81
2023/04/26 15:21:30;;;;;;;3.30;2.30;;;15.70;93.20;;;;;;5121419;28;20172;-82
2023/04/26 15:23:56;;;;;;;2.47;2.10;;;15.80;89.70;;;;;;5120324;28;20203;-81
2023/04/26 15:26:22;;;;;;;5.43;2.90;;;15.40;90.20;;;;;;5119639;28;20478;-79
2023/04/26 15:28:48;;;;;;;5.50;2.60;;;14.90;91.90;;;;;;5121442;28;20169;-81
2023/04/26 15:31:14;;;;;;;3.70;2.07;;;14.70;93.00;;;;;;5121449;28;20177;-82
2023/04/26 15:33:40;;;;;;;4.27;1.93;;;14.40;93.30;;;;;;5122246;28;20167;-81
2023/04/26 15:36:06;;;;;;;5.47;2.40;;;14.40;92.80;;;;;;5123479;28;20221;-81
2023/04/26 15:38:35;;;;;;;3.93;2.07;;;14.20;93.20;;;;;;5124072;28;20176;-83
2023/04/26 15:41:01;;;;;;;3.50;2.47;;;14.00;93.60;;;;;;5130131;28;20190;-82
2023/04/26 15:43:27;;;;;;;5.30;2.63;;;13.70;94.40;;;;;;5123702;28;20163;-77
2023/04/26 15:45:53;;;;;;;3.53;2.63;;;13.30;94.70;;;;;;5122407;28;20215;-81
2023/04/26 15:48:18;;;;;;;4.23;2.47;;;13.10;94.80;;;;;;5123891;28;20168;-81
2023/04/26 15:50:45;;;;;;;4.10;2.67;;;13.10;94.30;;;;;;5123484;28;20164;-81
2023/04/26 15:53:10;;;;;;;5.87;4.00;;;13.10;95.50;;;;;;5120921;28;20182;-81
2023/04/26 15:55:36;;;;;;;6.27;3.50;;;13.00;95.20;;;;;;5120929;28;20201;-80
2023/04/26 15:58:02;;;;;;;4.17;2.73;;;13.00;95.90;;;;;;5120714;28;20575;-81
2023/04/26 16:00:28;;;;;;;5.93;2.67;;;13.00;95.90;;;;;;5118001;28;20191;-79
2023/04/26 16:02:54;;;;;;;4.87;2.60;;;13.00;95.70;;;;;;5119926;28;20585;-81
2023/04/26 16:05:20;;;;;;;4.20;2.30;;;13.20;95.50;;;;;;5120336;28;20257;-81
2023/04/26 16:07:45;;;;;;;5.57;2.47;;;13.10;97.30;;;;;;5119398;28;20168;-81
2023/04/26 16:10:11;;;;;;;4.97;2.70;;;12.90;96.40;;;;;;5117465;28;20186;-81
2023/04/26 16:12:41;;;;;;;4.13;2.43;;;12.70;96.20;;;;;;5118501;28;20168;-82
2023/04/26 16:15:08;;;;;;;5.23;2.53;;;12.50;96.00;;;;;;5118308;28;20229;-82
2023/04/26 16:17:35;;;;;;;3.60;2.30;;;12.40;95.40;;;;;;5117011;28;20206;-81
2023/04/26 16:20:03;;;;;;;5.20;2.83;;;12.30;95.80;;;;;;5117562;28;20176;-83
2023/04/26 16:22:30;;;;;;;4.13;3.27;;;12.20;97.40;;;;;;5121620;28;20167;-81
2023/04/26 16:24:57;;;;;;;4.60;2.80;;;12.20;96.50;;;;;;5118799;28;20198;-82
2023/04/26 16:27:22;;;;;;;3.43;2.73;;;12.10;96.00;;;;;;5117106;28;20558;-81
2023/04/26 16:29:48;;;;;;;4.37;2.10;;;12.10;96.80;;;;;;5118937;28;20168;-80
2023/04/26 16:32:14;;;;;;;4.57;2.50;;;12.10;97.20;;;;;;5118109;28;20725;-80
2023/04/26 16:34:40;;;;;;;3.73;2.03;;;12.10;97.60;;;;;;5116788;28;20175;-80
2023/04/26 16:37:06;;;;;;;6.07;2.60;;;12.00;97.90;;;;;;5116465;28;20199;-80
2023/04/26 16:39:33;;;;;;;3.53;2.37;;;11.90;96.90;;;;;;5118325;28;20262;-79
2023/04/26 16:41:59;;;;;;;3.33;2.00;;;11.80;97.20;;;;;;5116652;28;20565;-78
2023/04/26 16:44:25;;;;;;;4.27;1.77;;;11.70;97.80;;;;;;5117879;28;20294;-78
2023/04/26 16:46:51;;;;;;;2.60;2.13;;;11.60;98.30;;;;;;5119994;28;20211;-78
2023/04/26 16:49:16;;;;;;;5.03;1.80;;;11.60;98.10;;;;;;5119122;28;20174;-81
2023/04/26 16:51:43;;;;;;;4.40;2.20;;;11.60;98.80;;;;;;5116643;28;20645;-79
2023/04/26 16:54:09;;;;;;;5.73;2.27;;;11.50;99.90;;;;;;5117019;28;20175;-79
2023/04/26 16:56:35;;;;;;;4.03;2.37;;;11.60;99.00;;;;;;5118170;27;20196;-79
2023/04/26 16:59:00;;;;;;;6.33;2.33;;;11.50;98.80;;;;;;5116321;28;20172;-80
2023/04/26 17:01:26;;;;;;;4.13;2.67;;;11.50;99.70;;;;;;5116611;28;20205;-79
2023/04/26 17:03:52;;;;;;;4.27;2.33;;;11.50;99.90;;;;;;5118394;28;20217;-79
2023/04/26 17:06:18;;;;;;;4.10;2.10;;;11.40;99.90;;;;;;5118486;27;20192;-79
2023/04/26 17:08:44;;;;;;;3.07;2.63;;;11.30;99.90;;;;;;5119100;28;20164;-79
2023/04/26 17:11:14;;;;;;;5.63;3.10;;;11.20;99.90;;;;;;5118937;28;20233;-80
2023/04/26 17:13:39;;;;;;;7.00;3.50;;;11.10;99.90;;;;;;5119251;28;20178;-80
2023/04/26 17:16:05;;;;;;;3.77;2.40;;;11.10;99.90;;;;;;5125792;28;20187;-79
2023/04/26 17:18:31;;;;;;;6.40;1.97;;;11.10;99.90;;;;;;5118053;28;20216;-80
2023/04/26 17:20:57;;;;;;;5.43;2.37;;;11.00;99.90;;;;;;5118276;28;20168;-80
2023/04/26 17:23:23;;;;;;;4.47;2.60;;;10.90;99.90;;;;;;5116171;28;20175;-78
